sensor_id;sensor_type;location;lat;lon;timestamp;P1;durP1;ratioP1;P2;durP2;ratioP2
15312;SDS011;7757;52.626;4.746;2022-07-04T00:00:59;4.00;;;1.13;;
15312;SDS011;7757;52.626;4.746;2022-07-04T00:03:26;5.07;;;1.38;;
15312;SDS011;7757;52.626;4.746;2022-07-04T00:05:52;5.57;;;1.42;;
15312;SDS011;7757;52.626;4.746;2022-07-04T00:08:18;6.03;;;1.48;;
15312;SDS011;7757;52.626;4.746;2022-07-04T00:10:45;4.13;;;1.20;;
15312;SDS011;7757;52.626;4.746;2022-07-04T00:13:11;6.20;;;1.45;;
15312;SDS011;7757;52.626;4.746;2022-07-04T00:15:38;5.93;;;1.67;;
15312;SDS011;7757;52.626;4.746;2022-07-04T00:18:06;6.15;;;1.20;;
15312;SDS011;7757;52.626;4.746;2022-07-04T00:20:33;7.35;;;1.20;;
15312;SDS011;7757;52.626;4.746;2022-07-04T00:23:00;5.03;;;1.20;;
15312;SDS011;7757;52.626;4.746;2022-07-04T00:25:26;9.27;;;1.42;;
15312;SDS011;7757;52.626;4.746;2022-07-04T00:27:53;7.07;;;1.50;;
15312;SDS011;7757;52.626;4.746;2022-07-04T00:30:19;6.35;;;1.30;;
15312;SDS011;7757;52.626;4.746;2022-07-04T00:32:46;7.03;;;1.50;;
15312;SDS011;7757;52.626;4.746;2022-07-04T00:35:13;6.15;;;1.38;;
15312;SDS011;7757;52.626;4.746;2022-07-04T00:37:40;6.82;;;1.30;;
15312;SDS011;7757;52.626;4.746;2022-07-04T00:40:07;4.60;;;1.20;;
15312;SDS011;7757;52.626;4.746;2022-07-04T00:42:34;3.63;;;1.13;;
15312;SDS011;7757;52.626;4.746;2022-07-04T00:45:00;4.20;;;1.10;;
15312;SDS011;7757;52.626;4.746;2022-07-04T00:47:27;4.55;;;1.20;;
15312;SDS011;7757;52.626;4.746;2022-07-04T00:49:53;8.80;;;1.40;;
15312;SDS011;7757;52.626;4.746;2022-07-04T00:52:21;5.25;;;1.38;;
15312;SDS011;7757;52.626;4.746;2022-07-04T00:54:48;5.97;;;1.40;;
15312;SDS011;7757;52.626;4.746;2022-07-04T00:57:15;8.10;;;1.30;;
15312;SDS011;7757;52.626;4.746;2022-07-04T00:59:42;17.30;;;1.40;;
15312;SDS011;7757;52.626;4.746;2022-07-04T01:02:08;6.32;;;1.35;;
15312;SDS011;7757;52.626;4.746;2022-07-04T01:04:34;5.45;;;1.55;;
15312;SDS011;7757;52.626;4.746;2022-07-04T01:07:01;7.22;;;1.50;;
15312;SDS011;7757;52.626;4.746;2022-07-04T01:09:30;7.10;;;1.40;;
15312;SDS011;7757;52.626;4.746;2022-07-04T01:11:56;7.07;;;1.25;;
15312;SDS011;7757;52.626;4.746;2022-07-04T01:14:23;5.45;;;1.20;;
15312;SDS011;7757;52.626;4.746;2022-07-04T01:16:49;9.27;;;1.65;;
15312;SDS011;7757;52.626;4.746;2022-07-04T01:19:16;6.88;;;1.50;;
15312;SDS011;7757;52.626;4.746;2022-07-04T01:21:44;4.80;;;1.13;;
15312;SDS011;7757;52.626;4.746;2022-07-04T01:24:10;5.03;;;1.35;;
15312;SDS011;7757;52.626;4.746;2022-07-04T01:26:37;5.40;;;1.40;;
15312;SDS011;7757;52.626;4.746;2022-07-04T01:29:04;8.10;;;1.45;;
15312;SDS011;7757;52.626;4.746;2022-07-04T01:31:31;6.63;;;1.40;;
15312;SDS011;7757;52.626;4.746;2022-07-04T01:33:57;4.70;;;1.20;;
15312;SDS011;7757;52.626;4.746;2022-07-04T01:36:24;5.10;;;1.30;;
15312;SDS011;7757;52.626;4.746;2022-07-04T01:38:52;5.63;;;1.30;;
15312;SDS011;7757;52.626;4.746;2022-07-04T01:41:19;7.63;;;1.30;;
15312;SDS011;7757;52.626;4.746;2022-07-04T01:43:45;8.50;;;1.40;;
15312;SDS011;7757;52.626;4.746;2022-07-04T01:46:12;5.50;;;1.40;;
15312;SDS011;7757;52.626;4.746;2022-07-04T01:48:38;5.88;;;1.30;;
15312;SDS011;7757;52.626;4.746;2022-07-04T01:51:05;6.40;;;1.45;;
15312;SDS011;7757;52.626;4.746;2022-07-04T01:53:35;5.97;;;1.38;;
15312;SDS011;7757;52.626;4.746;2022-07-04T01:56:03;6.65;;;1.40;;
15312;SDS011;7757;52.626;4.746;2022-07-04T01:58:30;9.27;;;1.80;;
15312;SDS011;7757;52.626;4.746;2022-07-04T02:00:57;6.15;;;1.52;;
15312;SDS011;7757;52.626;4.746;2022-07-04T02:03:40;6.50;;;1.27;;
15312;SDS011;7757;52.626;4.746;2022-07-04T02:06:07;6.72;;;1.58;;
15312;SDS011;7757;52.626;4.746;2022-07-04T02:08:33;6.95;;;1.48;;
15312;SDS011;7757;52.626;4.746;2022-07-04T02:11:15;7.30;;;1.63;;
15312;SDS011;7757;52.626;4.746;2022-07-04T02:13:42;6.28;;;1.52;;
15312;SDS011;7757;52.626;4.746;2022-07-04T02:16:08;6.78;;;1.40;;
15312;SDS011;7757;52.626;4.746;2022-07-04T02:18:34;8.73;;;1.55;;
15312;SDS011;7757;52.626;4.746;2022-07-04T02:21:01;9.77;;;1.40;;
15312;SDS011;7757;52.626;4.746;2022-07-04T02:23:27;8.65;;;1.60;;
15312;SDS011;7757;52.626;4.746;2022-07-04T02:25:54;7.18;;;1.60;;
15312;SDS011;7757;52.626;4.746;2022-07-04T02:28:21;6.68;;;1.70;;
15312;SDS011;7757;52.626;4.746;2022-07-04T02:30:48;11.05;;;1.92;;
15312;SDS011;7757;52.626;4.746;2022-07-04T02:33:14;8.68;;;1.70;;
15312;SDS011;7757;52.626;4.746;2022-07-04T02:35:41;8.13;;;1.77;;
15312;SDS011;7757;52.626;4.746;2022-07-04T02:38:07;9.13;;;1.63;;
15312;SDS011;7757;52.626;4.746;2022-07-04T02:40:34;9.02;;;1.50;;
15312;SDS011;7757;52.626;4.746;2022-07-04T02:43:00;6.70;;;1.45;;
15312;SDS011;7757;52.626;4.746;2022-07-04T02:45:28;8.95;;;1.65;;
15312;SDS011;7757;52.626;4.746;2022-07-04T02:47:55;8.10;;;1.50;;
15312;SDS011;7757;52.626;4.746;2022-07-04T02:50:21;9.27;;;1.77;;
15312;SDS011;7757;52.626;4.746;2022-07-04T02:52:48;8.88;;;1.85;;
15312;SDS011;7757;52.626;4.746;2022-07-04T02:55:14;9.75;;;1.80;;
15312;SDS011;7757;52.626;4.746;2022-07-04T02:57:41;10.82;;;2.25;;
15312;SDS011;7757;52.626;4.746;2022-07-04T03:00:08;11.63;;;2.00;;
15312;SDS011;7757;52.626;4.746;2022-07-04T03:02:36;12.85;;;1.77;;
15312;SDS011;7757;52.626;4.746;2022-07-04T03:05:03;11.57;;;2.10;;
15312;SDS011;7757;52.626;4.746;2022-07-04T03:07:31;13.15;;;2.55;;
15312;SDS011;7757;52.626;4.746;2022-07-04T03:09:57;11.82;;;1.88;;
15312;SDS011;7757;52.626;4.746;2022-07-04T03:12:23;9.52;;;1.85;;
15312;SDS011;7757;52.626;4.746;2022-07-04T03:14:50;12.00;;;2.20;;
15312;SDS011;7757;52.626;4.746;2022-07-04T03:17:18;10.43;;;2.00;;
15312;SDS011;7757;52.626;4.746;2022-07-04T03:19:46;11.57;;;1.80;;
15312;SDS011;7757;52.626;4.746;2022-07-04T03:22:12;13.25;;;2.08;;
15312;SDS011;7757;52.626;4.746;2022-07-04T03:24:39;11.02;;;1.70;;
15312;SDS011;7757;52.626;4.746;2022-07-04T03:27:05;12.68;;;1.88;;
15312;SDS011;7757;52.626;4.746;2022-07-04T03:29:32;10.30;;;1.88;;
15312;SDS011;7757;52.626;4.746;2022-07-04T03:31:58;14.20;;;2.00;;
15312;SDS011;7757;52.626;4.746;2022-07-04T03:34:25;9.90;;;1.80;;
15312;SDS011;7757;52.626;4.746;2022-07-04T03:36:53;8.45;;;1.73;;
15312;SDS011;7757;52.626;4.746;2022-07-04T03:39:19;9.85;;;1.77;;
15312;SDS011;7757;52.626;4.746;2022-07-04T03:41:46;10.23;;;1.65;;
15312;SDS011;7757;52.626;4.746;2022-07-04T03:44:13;12.30;;;1.70;;
15312;SDS011;7757;52.626;4.746;2022-07-04T03:46:39;7.63;;;1.58;;
15312;SDS011;7757;52.626;4.746;2022-07-04T03:49:06;8.15;;;1.48;;
15312;SDS011;7757;52.626;4.746;2022-07-04T03:51:32;11.55;;;1.60;;
15312;SDS011;7757;52.626;4.746;2022-07-04T03:54:00;9.43;;;1.90;;
15312;SDS011;7757;52.626;4.746;2022-07-04T03:56:27;12.45;;;1.70;;
15312;SDS011;7757;52.626;4.746;2022-07-04T03:58:53;10.57;;;1.70;;
15312;SDS011;7757;52.626;4.746;2022-07-04T04:01:20;8.05;;;1.98;;
15312;SDS011;7757;52.626;4.746;2022-07-04T04:03:46;8.93;;;1.52;;
15312;SDS011;7757;52.626;4.746;2022-07-04T04:06:30;9.95;;;1.70;;
15312;SDS011;7757;52.626;4.746;2022-07-04T04:08:57;10.77;;;1.92;;
15312;SDS011;7757;52.626;4.746;2022-07-04T04:11:25;8.52;;;1.52;;
15312;SDS011;7757;52.626;4.746;2022-07-04T04:13:51;9.98;;;1.77;;
15312;SDS011;7757;52.626;4.746;2022-07-04T04:16:18;12.80;;;2.05;;
15312;SDS011;7757;52.626;4.746;2022-07-04T04:18:44;11.00;;;1.73;;
15312;SDS011;7757;52.626;4.746;2022-07-04T04:21:11;9.95;;;1.70;;
15312;SDS011;7757;52.626;4.746;2022-07-04T04:23:37;9.55;;;1.83;;
15312;SDS011;7757;52.626;4.746;2022-07-04T04:26:04;11.90;;;1.98;;
15312;SDS011;7757;52.626;4.746;2022-07-04T04:28:31;7.97;;;1.67;;
15312;SDS011;7757;52.626;4.746;2022-07-04T04:30:58;11.65;;;2.10;;
15312;SDS011;7757;52.626;4.746;2022-07-04T04:33:25;9.65;;;1.63;;
15312;SDS011;7757;52.626;4.746;2022-07-04T04:35:51;11.63;;;1.83;;
15312;SDS011;7757;52.626;4.746;2022-07-04T04:38:18;12.45;;;2.00;;
15312;SDS011;7757;52.626;4.746;2022-07-04T04:40:44;11.40;;;1.80;;
15312;SDS011;7757;52.626;4.746;2022-07-04T04:43:11;9.23;;;1.85;;
15312;SDS011;7757;52.626;4.746;2022-07-04T04:45:38;11.27;;;1.90;;
15312;SDS011;7757;52.626;4.746;2022-07-04T04:48:06;9.73;;;1.75;;
15312;SDS011;7757;52.626;4.746;2022-07-04T04:50:32;8.88;;;1.60;;
15312;SDS011;7757;52.626;4.746;2022-07-04T04:52:59;6.40;;;1.40;;
15312;SDS011;7757;52.626;4.746;2022-07-04T04:55:26;10.10;;;1.88;;
15312;SDS011;7757;52.626;4.746;2022-07-04T04:57:53;8.70;;;1.90;;
15312;SDS011;7757;52.626;4.746;2022-07-04T05:00:20;8.43;;;1.50;;
15312;SDS011;7757;52.626;4.746;2022-07-04T05:02:47;11.15;;;1.80;;
15312;SDS011;7757;52.626;4.746;2022-07-04T05:05:14;6.13;;;1.45;;
15312;SDS011;7757;52.626;4.746;2022-07-04T05:07:40;10.35;;;1.65;;
15312;SDS011;7757;52.626;4.746;2022-07-04T05:10:08;9.50;;;1.80;;
15312;SDS011;7757;52.626;4.746;2022-07-04T05:12:35;5.82;;;1.70;;
15312;SDS011;7757;52.626;4.746;2022-07-04T05:15:02;7.68;;;1.65;;
15312;SDS011;7757;52.626;4.746;2022-07-04T05:17:29;9.65;;;2.03;;
15312;SDS011;7757;52.626;4.746;2022-07-04T05:19:56;8.32;;;1.50;;
15312;SDS011;7757;52.626;4.746;2022-07-04T05:22:23;9.88;;;2.05;;
15312;SDS011;7757;52.626;4.746;2022-07-04T05:24:49;7.65;;;1.50;;
15312;SDS011;7757;52.626;4.746;2022-07-04T05:27:16;8.63;;;1.70;;
15312;SDS011;7757;52.626;4.746;2022-07-04T05:29:42;8.40;;;1.63;;
15312;SDS011;7757;52.626;4.746;2022-07-04T05:32:09;7.00;;;1.67;;
15312;SDS011;7757;52.626;4.746;2022-07-04T05:34:36;8.68;;;1.70;;
15312;SDS011;7757;52.626;4.746;2022-07-04T05:37:04;9.90;;;1.70;;
15312;SDS011;7757;52.626;4.746;2022-07-04T05:39:30;7.57;;;1.60;;
15312;SDS011;7757;52.626;4.746;2022-07-04T05:41:57;8.15;;;1.77;;
15312;SDS011;7757;52.626;4.746;2022-07-04T05:44:23;11.55;;;2.65;;
15312;SDS011;7757;52.626;4.746;2022-07-04T05:46:50;7.63;;;1.90;;
15312;SDS011;7757;52.626;4.746;2022-07-04T05:49:16;10.18;;;2.10;;
15312;SDS011;7757;52.626;4.746;2022-07-04T05:51:43;18.50;;;3.08;;
15312;SDS011;7757;52.626;4.746;2022-07-04T05:54:11;11.85;;;2.72;;
15312;SDS011;7757;52.626;4.746;2022-07-04T05:56:37;12.32;;;2.88;;
15312;SDS011;7757;52.626;4.746;2022-07-04T05:59:07;10.52;;;2.50;;
15312;SDS011;7757;52.626;4.746;2022-07-04T06:01:33;10.57;;;2.15;;
15312;SDS011;7757;52.626;4.746;2022-07-04T06:04:00;13.90;;;2.40;;
15312;SDS011;7757;52.626;4.746;2022-07-04T06:06:26;10.80;;;2.30;;
15312;SDS011;7757;52.626;4.746;2022-07-04T06:08:53;10.55;;;2.30;;
15312;SDS011;7757;52.626;4.746;2022-07-04T06:11:21;13.00;;;2.40;;
15312;SDS011;7757;52.626;4.746;2022-07-04T06:13:48;14.95;;;2.65;;
15312;SDS011;7757;52.626;4.746;2022-07-04T06:16:15;15.30;;;2.75;;
15312;SDS011;7757;52.626;4.746;2022-07-04T06:18:42;13.18;;;2.65;;
15312;SDS011;7757;52.626;4.746;2022-07-04T06:21:09;11.70;;;2.60;;
15312;SDS011;7757;52.626;4.746;2022-07-04T06:23:36;10.88;;;2.38;;
15312;SDS011;7757;52.626;4.746;2022-07-04T06:26:02;11.32;;;2.50;;
15312;SDS011;7757;52.626;4.746;2022-07-04T06:28:30;10.80;;;2.35;;
15312;SDS011;7757;52.626;4.746;2022-07-04T06:30:57;12.45;;;2.45;;
15312;SDS011;7757;52.626;4.746;2022-07-04T06:33:23;17.17;;;3.40;;
15312;SDS011;7757;52.626;4.746;2022-07-04T06:35:50;17.85;;;3.67;;
15312;SDS011;7757;52.626;4.746;2022-07-04T06:38:20;16.13;;;3.05;;
15312;SDS011;7757;52.626;4.746;2022-07-04T06:40:48;15.48;;;2.97;;
15312;SDS011;7757;52.626;4.746;2022-07-04T06:43:15;12.10;;;2.65;;
15312;SDS011;7757;52.626;4.746;2022-07-04T06:45:43;13.32;;;2.92;;
15312;SDS011;7757;52.626;4.746;2022-07-04T06:48:09;11.90;;;2.50;;
15312;SDS011;7757;52.626;4.746;2022-07-04T06:50:36;11.65;;;2.47;;
15312;SDS011;7757;52.626;4.746;2022-07-04T06:53:03;9.80;;;2.38;;
15312;SDS011;7757;52.626;4.746;2022-07-04T06:55:31;10.38;;;2.40;;
15312;SDS011;7757;52.626;4.746;2022-07-04T06:57:58;11.50;;;2.25;;
15312;SDS011;7757;52.626;4.746;2022-07-04T07:00:24;11.85;;;2.30;;
15312;SDS011;7757;52.626;4.746;2022-07-04T07:02:52;9.82;;;2.38;;
15312;SDS011;7757;52.626;4.746;2022-07-04T07:05:19;8.95;;;2.10;;
15312;SDS011;7757;52.626;4.746;2022-07-04T07:07:45;11.60;;;2.40;;
15312;SDS011;7757;52.626;4.746;2022-07-04T07:10:12;8.73;;;2.00;;
15312;SDS011;7757;52.626;4.746;2022-07-04T07:12:38;8.55;;;1.95;;
15312;SDS011;7757;52.626;4.746;2022-07-04T07:15:05;9.95;;;2.13;;
15312;SDS011;7757;52.626;4.746;2022-07-04T07:17:32;8.05;;;1.88;;
15312;SDS011;7757;52.626;4.746;2022-07-04T07:20:00;9.32;;;1.83;;
15312;SDS011;7757;52.626;4.746;2022-07-04T07:22:27;9.27;;;1.85;;
15312;SDS011;7757;52.626;4.746;2022-07-04T07:24:53;7.80;;;1.80;;
15312;SDS011;7757;52.626;4.746;2022-07-04T07:27:20;9.10;;;2.00;;
15312;SDS011;7757;52.626;4.746;2022-07-04T07:29:46;6.90;;;1.65;;
15312;SDS011;7757;52.626;4.746;2022-07-04T07:32:13;8.23;;;1.70;;
15312;SDS011;7757;52.626;4.746;2022-07-04T07:34:40;21.83;;;1.95;;
15312;SDS011;7757;52.626;4.746;2022-07-04T07:37:07;8.27;;;1.60;;
15312;SDS011;7757;52.626;4.746;2022-07-04T07:39:34;10.35;;;1.85;;
15312;SDS011;7757;52.626;4.746;2022-07-04T07:42:01;13.05;;;1.67;;
15312;SDS011;7757;52.626;4.746;2022-07-04T07:44:27;8.25;;;1.85;;
15312;SDS011;7757;52.626;4.746;2022-07-04T07:46:54;9.10;;;1.90;;
15312;SDS011;7757;52.626;4.746;2022-07-04T07:49:21;8.93;;;1.80;;
15312;SDS011;7757;52.626;4.746;2022-07-04T07:51:47;6.50;;;1.67;;
15312;SDS011;7757;52.626;4.746;2022-07-04T07:54:15;7.03;;;1.60;;
15312;SDS011;7757;52.626;4.746;2022-07-04T07:56:42;7.35;;;1.73;;
15312;SDS011;7757;52.626;4.746;2022-07-04T07:59:09;7.40;;;1.70;;
15312;SDS011;7757;52.626;4.746;2022-07-04T08:01:35;10.70;;;1.90;;
15312;SDS011;7757;52.626;4.746;2022-07-04T08:04:02;8.48;;;2.05;;
15312;SDS011;7757;52.626;4.746;2022-07-04T08:06:46;6.53;;;1.80;;
15312;SDS011;7757;52.626;4.746;2022-07-04T08:09:13;7.65;;;1.80;;
15312;SDS011;7757;52.626;4.746;2022-07-04T08:11:41;8.75;;;1.77;;
15312;SDS011;7757;52.626;4.746;2022-07-04T08:14:08;7.32;;;1.58;;
15312;SDS011;7757;52.626;4.746;2022-07-04T08:16:34;8.77;;;1.70;;
15312;SDS011;7757;52.626;4.746;2022-07-04T08:19:01;9.80;;;1.77;;
15312;SDS011;7757;52.626;4.746;2022-07-04T08:21:29;9.80;;;1.65;;
15312;SDS011;7757;52.626;4.746;2022-07-04T08:23:55;6.20;;;1.55;;
15312;SDS011;7757;52.626;4.746;2022-07-04T08:26:22;6.72;;;1.67;;
15312;SDS011;7757;52.626;4.746;2022-07-04T08:28:50;5.90;;;1.55;;
15312;SDS011;7757;52.626;4.746;2022-07-04T08:31:17;7.95;;;1.65;;
15312;SDS011;7757;52.626;4.746;2022-07-04T08:33:43;7.93;;;1.70;;
15312;SDS011;7757;52.626;4.746;2022-07-04T08:36:12;9.77;;;1.65;;
15312;SDS011;7757;52.626;4.746;2022-07-04T08:38:38;6.70;;;1.48;;
15312;SDS011;7757;52.626;4.746;2022-07-04T08:41:05;10.00;;;2.08;;
15312;SDS011;7757;52.626;4.746;2022-07-04T08:43:31;7.35;;;1.60;;
15312;SDS011;7757;52.626;4.746;2022-07-04T08:46:02;6.97;;;1.70;;
15312;SDS011;7757;52.626;4.746;2022-07-04T08:48:30;8.32;;;1.50;;
15312;SDS011;7757;52.626;4.746;2022-07-04T08:50:59;10.80;;;1.70;;
15312;SDS011;7757;52.626;4.746;2022-07-04T08:53:35;5.82;;;1.60;;
15312;SDS011;7757;52.626;4.746;2022-07-04T08:56:04;7.68;;;1.63;;
15312;SDS011;7757;52.626;4.746;2022-07-04T08:58:50;9.50;;;1.60;;
15312;SDS011;7757;52.626;4.746;2022-07-04T09:01:18;7.82;;;1.73;;
15312;SDS011;7757;52.626;4.746;2022-07-04T09:03:45;8.98;;;1.67;;
15312;SDS011;7757;52.626;4.746;2022-07-04T09:06:12;8.38;;;1.85;;
15312;SDS011;7757;52.626;4.746;2022-07-04T09:08:39;6.28;;;1.73;;
15312;SDS011;7757;52.626;4.746;2022-07-04T09:11:07;7.38;;;1.70;;
15312;SDS011;7757;52.626;4.746;2022-07-04T09:13:34;6.22;;;1.45;;
15312;SDS011;7757;52.626;4.746;2022-07-04T09:16:00;8.25;;;1.65;;
15312;SDS011;7757;52.626;4.746;2022-07-04T09:18:30;7.65;;;1.70;;
15312;SDS011;7757;52.626;4.746;2022-07-04T09:20:58;7.03;;;1.40;;
15312;SDS011;7757;52.626;4.746;2022-07-04T09:23:27;4.20;;;1.42;;
15312;SDS011;7757;52.626;4.746;2022-07-04T09:26:09;4.68;;;1.50;;
15312;SDS011;7757;52.626;4.746;2022-07-04T09:28:37;10.93;;;1.77;;
15312;SDS011;7757;52.626;4.746;2022-07-04T09:31:17;6.88;;;1.50;;
15312;SDS011;7757;52.626;4.746;2022-07-04T09:33:48;4.63;;;1.40;;
15312;SDS011;7757;52.626;4.746;2022-07-04T09:36:17;5.55;;;1.40;;
15312;SDS011;7757;52.626;4.746;2022-07-04T09:38:45;6.25;;;1.55;;
15312;SDS011;7757;52.626;4.746;2022-07-04T09:41:30;8.70;;;1.40;;
15312;SDS011;7757;52.626;4.746;2022-07-04T09:44:00;8.85;;;1.58;;
15312;SDS011;7757;52.626;4.746;2022-07-04T09:46:29;11.07;;;1.60;;
15312;SDS011;7757;52.626;4.746;2022-07-04T09:48:57;6.55;;;1.50;;
15312;SDS011;7757;52.626;4.746;2022-07-04T09:51:37;6.47;;;1.73;;
15312;SDS011;7757;52.626;4.746;2022-07-04T09:54:15;3.97;;;1.38;;
15312;SDS011;7757;52.626;4.746;2022-07-04T09:56:47;7.90;;;1.60;;
15312;SDS011;7757;52.626;4.746;2022-07-04T09:59:15;5.90;;;1.42;;
15312;SDS011;7757;52.626;4.746;2022-07-04T10:01:41;6.45;;;1.40;;
15312;SDS011;7757;52.626;4.746;2022-07-04T10:04:09;9.77;;;1.85;;
15312;SDS011;7757;52.626;4.746;2022-07-04T10:06:38;10.90;;;1.80;;
15312;SDS011;7757;52.626;4.746;2022-07-04T10:09:06;6.22;;;1.33;;
15312;SDS011;7757;52.626;4.746;2022-07-04T10:11:35;5.95;;;1.40;;
15312;SDS011;7757;52.626;4.746;2022-07-04T10:14:03;9.88;;;1.70;;
15312;SDS011;7757;52.626;4.746;2022-07-04T10:16:30;5.22;;;1.38;;
15312;SDS011;7757;52.626;4.746;2022-07-04T10:18:57;5.50;;;1.50;;
15312;SDS011;7757;52.626;4.746;2022-07-04T10:21:25;7.10;;;1.25;;
15312;SDS011;7757;52.626;4.746;2022-07-04T10:23:52;6.13;;;1.40;;
15312;SDS011;7757;52.626;4.746;2022-07-04T10:26:19;7.22;;;1.55;;
15312;SDS011;7757;52.626;4.746;2022-07-04T10:28:47;6.28;;;1.60;;
15312;SDS011;7757;52.626;4.746;2022-07-04T10:31:16;6.78;;;1.40;;
15312;SDS011;7757;52.626;4.746;2022-07-04T10:33:44;5.15;;;1.30;;
15312;SDS011;7757;52.626;4.746;2022-07-04T10:36:15;9.85;;;1.70;;
15312;SDS011;7757;52.626;4.746;2022-07-04T10:38:48;9.27;;;1.58;;
15312;SDS011;7757;52.626;4.746;2022-07-04T10:41:16;5.63;;;1.35;;
15312;SDS011;7757;52.626;4.746;2022-07-04T10:43:50;6.47;;;1.23;;
15312;SDS011;7757;52.626;4.746;2022-07-04T10:46:28;4.90;;;1.40;;
15312;SDS011;7757;52.626;4.746;2022-07-04T10:48:57;6.50;;;1.50;;
15312;SDS011;7757;52.626;4.746;2022-07-04T10:51:32;6.13;;;1.33;;
15312;SDS011;7757;52.626;4.746;2022-07-04T10:54:18;7.95;;;1.38;;
15312;SDS011;7757;52.626;4.746;2022-07-04T10:56:47;6.38;;;1.48;;
15312;SDS011;7757;52.626;4.746;2022-07-04T10:59:20;6.70;;;1.60;;
15312;SDS011;7757;52.626;4.746;2022-07-04T11:01:51;5.30;;;1.35;;
15312;SDS011;7757;52.626;4.746;2022-07-04T11:07:14;5.30;;;1.30;;
15312;SDS011;7757;52.626;4.746;2022-07-04T11:09:43;4.70;;;1.30;;
15312;SDS011;7757;52.626;4.746;2022-07-04T11:12:10;7.68;;;1.33;;
15312;SDS011;7757;52.626;4.746;2022-07-04T11:14:40;6.78;;;1.52;;
15312;SDS011;7757;52.626;4.746;2022-07-04T11:17:08;5.95;;;1.40;;
15312;SDS011;7757;52.626;4.746;2022-07-04T11:19:36;10.10;;;1.50;;
15312;SDS011;7757;52.626;4.746;2022-07-04T11:22:03;7.03;;;1.60;;
15312;SDS011;7757;52.626;4.746;2022-07-04T11:24:31;6.05;;;1.50;;
15312;SDS011;7757;52.626;4.746;2022-07-04T11:26:59;5.43;;;1.33;;
15312;SDS011;7757;52.626;4.746;2022-07-04T11:29:26;8.43;;;2.03;;
15312;SDS011;7757;52.626;4.746;2022-07-04T11:31:53;5.35;;;1.40;;
15312;SDS011;7757;52.626;4.746;2022-07-04T11:34:20;5.55;;;1.35;;
15312;SDS011;7757;52.626;4.746;2022-07-04T11:36:47;7.18;;;1.50;;
15312;SDS011;7757;52.626;4.746;2022-07-04T11:39:16;4.30;;;1.20;;
15312;SDS011;7757;52.626;4.746;2022-07-04T11:41:44;5.57;;;1.50;;
15312;SDS011;7757;52.626;4.746;2022-07-04T11:44:31;5.40;;;1.30;;
15312;SDS011;7757;52.626;4.746;2022-07-04T11:47:17;5.05;;;1.23;;
15312;SDS011;7757;52.626;4.746;2022-07-04T11:49:45;6.80;;;1.30;;
15312;SDS011;7757;52.626;4.746;2022-07-04T11:52:15;4.35;;;1.20;;
15312;SDS011;7757;52.626;4.746;2022-07-04T11:54:44;5.18;;;1.25;;
15312;SDS011;7757;52.626;4.746;2022-07-04T11:57:12;5.88;;;1.20;;
15312;SDS011;7757;52.626;4.746;2022-07-04T11:59:41;6.78;;;1.35;;
15312;SDS011;7757;52.626;4.746;2022-07-04T12:02:09;6.47;;;1.35;;
15312;SDS011;7757;52.626;4.746;2022-07-04T12:04:37;3.67;;;1.10;;
15312;SDS011;7757;52.626;4.746;2022-07-04T12:07:08;3.47;;;1.17;;
15312;SDS011;7757;52.626;4.746;2022-07-04T12:09:36;6.05;;;1.30;;
15312;SDS011;7757;52.626;4.746;2022-07-04T12:12:03;4.18;;;1.20;;
15312;SDS011;7757;52.626;4.746;2022-07-04T12:14:30;6.55;;;1.30;;
15312;SDS011;7757;52.626;4.746;2022-07-04T12:19:53;5.78;;;1.25;;
15312;SDS011;7757;52.626;4.746;2022-07-04T12:22:28;3.65;;;1.30;;
15312;SDS011;7757;52.626;4.746;2022-07-04T12:24:57;4.60;;;1.30;;
15312;SDS011;7757;52.626;4.746;2022-07-04T12:27:25;4.65;;;1.13;;
15312;SDS011;7757;52.626;4.746;2022-07-04T12:29:52;4.43;;;1.20;;
15312;SDS011;7757;52.626;4.746;2022-07-04T12:32:21;6.43;;;1.40;;
15312;SDS011;7757;52.626;4.746;2022-07-04T12:34:48;5.05;;;1.20;;
15312;SDS011;7757;52.626;4.746;2022-07-04T12:37:15;7.32;;;1.30;;
15312;SDS011;7757;52.626;4.746;2022-07-04T12:39:43;6.75;;;1.27;;
15312;SDS011;7757;52.626;4.746;2022-07-04T12:42:11;7.57;;;1.42;;
15312;SDS011;7757;52.626;4.746;2022-07-04T12:44:39;8.00;;;1.35;;
15312;SDS011;7757;52.626;4.746;2022-07-04T12:47:07;5.63;;;1.17;;
15312;SDS011;7757;52.626;4.746;2022-07-04T12:49:41;4.70;;;1.20;;
15312;SDS011;7757;52.626;4.746;2022-07-04T12:52:10;3.55;;;1.10;;
15312;SDS011;7757;52.626;4.746;2022-07-04T12:54:39;7.10;;;1.40;;
15312;SDS011;7757;52.626;4.746;2022-07-04T12:57:10;4.00;;;1.10;;
15312;SDS011;7757;52.626;4.746;2022-07-04T12:59:38;5.22;;;1.13;;
15312;SDS011;7757;52.626;4.746;2022-07-04T13:02:05;4.65;;;1.15;;
15312;SDS011;7757;52.626;4.746;2022-07-04T13:04:33;3.55;;;1.30;;
15312;SDS011;7757;52.626;4.746;2022-07-04T13:07:11;1.98;;;0.80;;
15312;SDS011;7757;52.626;4.746;2022-07-04T13:09:39;4.70;;;1.00;;
15312;SDS011;7757;52.626;4.746;2022-07-04T13:12:07;5.13;;;1.27;;
15312;SDS011;7757;52.626;4.746;2022-07-04T13:14:53;5.03;;;1.05;;
15312;SDS011;7757;52.626;4.746;2022-07-04T13:17:20;4.95;;;1.20;;
15312;SDS011;7757;52.626;4.746;2022-07-04T13:19:47;3.40;;;1.15;;
15312;SDS011;7757;52.626;4.746;2022-07-04T13:22:15;3.75;;;1.17;;
15312;SDS011;7757;52.626;4.746;2022-07-04T13:24:42;4.53;;;1.20;;
15312;SDS011;7757;52.626;4.746;2022-07-04T13:27:08;4.20;;;0.98;;
15312;SDS011;7757;52.626;4.746;2022-07-04T13:29:35;4.82;;;1.10;;
15312;SDS011;7757;52.626;4.746;2022-07-04T13:32:02;5.70;;;1.10;;
15312;SDS011;7757;52.626;4.746;2022-07-04T13:34:29;4.07;;;1.33;;
15312;SDS011;7757;52.626;4.746;2022-07-04T13:36:55;4.35;;;1.20;;
15312;SDS011;7757;52.626;4.746;2022-07-04T13:39:23;4.80;;;1.10;;
15312;SDS011;7757;52.626;4.746;2022-07-04T13:41:50;3.97;;;1.17;;
15312;SDS011;7757;52.626;4.746;2022-07-04T13:44:16;3.28;;;0.90;;
15312;SDS011;7757;52.626;4.746;2022-07-04T13:46:43;5.60;;;1.20;;
15312;SDS011;7757;52.626;4.746;2022-07-04T13:49:10;4.05;;;1.02;;
15312;SDS011;7757;52.626;4.746;2022-07-04T13:51:37;2.72;;;0.90;;
15312;SDS011;7757;52.626;4.746;2022-07-04T13:54:03;4.78;;;1.10;;
15312;SDS011;7757;52.626;4.746;2022-07-04T13:56:31;3.55;;;1.15;;
15312;SDS011;7757;52.626;4.746;2022-07-04T13:58:58;6.63;;;1.25;;
15312;SDS011;7757;52.626;4.746;2022-07-04T14:01:25;4.22;;;1.10;;
15312;SDS011;7757;52.626;4.746;2022-07-04T14:03:52;4.97;;;1.20;;
15312;SDS011;7757;52.626;4.746;2022-07-04T14:06:20;6.03;;;1.20;;
15312;SDS011;7757;52.626;4.746;2022-07-04T14:08:46;3.97;;;1.20;;
15312;SDS011;7757;52.626;4.746;2022-07-04T14:11:13;3.45;;;1.20;;
15312;SDS011;7757;52.626;4.746;2022-07-04T14:13:40;3.13;;;1.10;;
15312;SDS011;7757;52.626;4.746;2022-07-04T14:16:07;6.25;;;1.23;;
15312;SDS011;7757;52.626;4.746;2022-07-04T14:18:33;4.30;;;1.20;;
15312;SDS011;7757;52.626;4.746;2022-07-04T14:21:00;5.57;;;1.17;;
15312;SDS011;7757;52.626;4.746;2022-07-04T14:23:27;4.43;;;1.23;;
15312;SDS011;7757;52.626;4.746;2022-07-04T14:26:11;4.10;;;1.08;;
15312;SDS011;7757;52.626;4.746;2022-07-04T14:28:38;3.45;;;1.10;;
15312;SDS011;7757;52.626;4.746;2022-07-04T14:31:07;3.42;;;1.10;;
15312;SDS011;7757;52.626;4.746;2022-07-04T14:33:34;2.33;;;1.00;;
15312;SDS011;7757;52.626;4.746;2022-07-04T14:36:01;4.05;;;1.20;;
15312;SDS011;7757;52.626;4.746;2022-07-04T14:38:28;5.47;;;1.10;;
15312;SDS011;7757;52.626;4.746;2022-07-04T14:40:55;4.63;;;1.08;;
15312;SDS011;7757;52.626;4.746;2022-07-04T14:43:34;5.13;;;1.25;;
15312;SDS011;7757;52.626;4.746;2022-07-04T14:46:03;6.05;;;1.40;;
15312;SDS011;7757;52.626;4.746;2022-07-04T14:48:30;4.85;;;1.25;;
15312;SDS011;7757;52.626;4.746;2022-07-04T14:50:56;5.35;;;1.30;;
15312;SDS011;7757;52.626;4.746;2022-07-04T14:53:23;7.25;;;1.60;;
15312;SDS011;7757;52.626;4.746;2022-07-04T14:55:49;5.78;;;1.23;;
15312;SDS011;7757;52.626;4.746;2022-07-04T14:58:16;5.05;;;1.40;;
15312;SDS011;7757;52.626;4.746;2022-07-04T15:00:42;6.28;;;2.13;;
15312;SDS011;7757;52.626;4.746;2022-07-04T15:03:10;2.78;;;1.20;;
15312;SDS011;7757;52.626;4.746;2022-07-04T15:05:37;4.40;;;1.40;;
15312;SDS011;7757;52.626;4.746;2022-07-04T15:08:03;5.85;;;1.58;;